createdAt,value
2018-02-06T00:00:52.879Z,1019.39
2018-02-06T00:02:02.620Z,1019.4
2018-02-06T00:03:12.578Z,1019.38
2018-02-06T00:04:22.003Z,1019.37
2018-02-06T00:05:31.698Z,1019.37
2018-02-06T00:06:41.679Z,1019.39
2018-02-06T00:07:51.625Z,1019.41
2018-02-06T00:09:01.592Z,1019.42
2018-02-06T00:10:11.543Z,1019.39
2018-02-06T00:11:21.236Z,1019.38
2018-02-06T00:12:31.193Z,1019.34
2018-02-06T00:13:41.149Z,1019.38
2018-02-06T00:14:50.846Z,1019.34
2018-02-06T00:16:00.784Z,1019.34
2018-02-06T00:17:10.224Z,1019.31
2018-02-06T00:18:20.174Z,1019.34
2018-02-06T00:19:29.868Z,1019.31
2018-02-06T00:20:39.819Z,1019.3
2018-02-06T00:21:49.511Z,1019.29
2018-02-06T00:22:59.502Z,1019.28
2018-02-06T00:24:09.443Z,1019.27
2018-02-06T00:25:19.414Z,1019.22
2018-02-06T00:26:29.117Z,1019.25
2018-02-06T00:27:39.071Z,1019.26
2018-02-06T00:28:48.757Z,1019.19
2018-02-06T00:29:58.754Z,1019.2
2018-02-06T00:31:08.699Z,1019.22
2018-02-06T00:32:18.135Z,1019.18
2018-02-06T00:33:28.088Z,1019.23
2018-02-06T00:34:38.048Z,1019.18
2018-02-06T00:35:47.723Z,1019.15
2018-02-06T00:36:57.673Z,1019.18
2018-02-06T00:38:07.623Z,1019.15
2018-02-06T00:39:17.597Z,1019.1
2018-02-06T00:40:27.535Z,1019.13
2018-02-06T00:41:37.480Z,1019.11
2018-02-06T00:42:47.428Z,1019.08
2018-02-06T00:43:57.112Z,1019.03
2018-02-06T00:45:07.075Z,1019.12
2018-02-06T00:46:17.024Z,1019.09
2018-02-06T00:47:26.708Z,1019.13
2018-02-06T00:48:36.650Z,1019.08
2018-02-06T00:49:46.586Z,1019.06
2018-02-06T00:50:56.531Z,1019.08
2018-02-06T00:52:06.481Z,1019.06
2018-02-06T00:53:16.428Z,1019.06
2018-02-06T00:54:26.119Z,1019.01
2018-02-06T00:55:35.820Z,1019.03
2018-02-06T00:56:45.507Z,1018.99
2018-02-06T00:57:55.452Z,1019
2018-02-06T00:59:05.411Z,1018.98
2018-02-06T01:00:15.105Z,1018.98
2018-02-06T01:01:25.044Z,1018.94
2018-02-06T01:02:35.005Z,1018.95
2018-02-06T01:03:44.954Z,1018.99
2018-02-06T01:04:54.887Z,1018.93
2018-02-06T01:06:04.834Z,1018.9
2018-02-06T01:07:14.535Z,1018.92
2018-02-06T01:08:24.234Z,1018.88
2018-02-06T01:09:34.172Z,1018.89
2018-02-06T01:10:43.863Z,1018.81
2018-02-06T01:11:53.559Z,1018.83
2018-02-06T01:13:03.244Z,1018.83
2018-02-06T01:14:13.180Z,1018.81
2018-02-06T01:15:22.864Z,1018.8
2018-02-06T01:16:32.830Z,1018.75
2018-02-06T01:17:42.784Z,1018.78
2018-02-06T01:18:52.466Z,1018.75
2018-02-06T01:20:02.410Z,1018.76
2018-02-06T01:21:12.370Z,1018.73
2018-02-06T01:22:22.114Z,1018.69
2018-02-06T01:23:32.054Z,1018.72
2018-02-06T01:24:41.989Z,1018.68
2018-02-06T01:25:51.692Z,1018.7
2018-02-06T01:27:01.402Z,1018.66
2018-02-06T01:28:11.336Z,1018.65
2018-02-06T01:29:21.017Z,1018.57
2018-02-06T01:30:30.970Z,1018.56
2018-02-06T01:31:40.913Z,1018.51
2018-02-06T01:32:50.593Z,1018.52
2018-02-06T01:34:00.535Z,1018.53
2018-02-06T01:35:10.478Z,1018.52
2018-02-06T01:36:20.174Z,1018.51
2018-02-06T01:37:29.855Z,1018.45
2018-02-06T01:38:39.855Z,1018.44
2018-02-06T01:39:49.541Z,1018.39
2018-02-06T01:40:59.474Z,1018.4
2018-02-06T01:42:08.912Z,1018.34
2018-02-06T01:43:18.865Z,1018.34
2018-02-06T01:44:28.817Z,1018.35
2018-02-06T01:45:38.506Z,1018.34
2018-02-06T01:46:48.445Z,1018.3
2018-02-06T01:47:58.403Z,1018.32
2018-02-06T01:49:08.345Z,1018.27
2018-02-06T01:50:18.277Z,1018.26
2018-02-06T01:51:27.703Z,1018.27
2018-02-06T01:52:37.649Z,1018.22
2018-02-06T01:53:47.594Z,1018.22
2018-02-06T01:54:57.303Z,1018.22
2018-02-06T01:56:06.983Z,1018.19
2018-02-06T01:57:16.922Z,1018.19
2018-02-06T01:58:26.892Z,1018.17
2018-02-06T01:59:36.846Z,1018.16
2018-02-06T02:00:46.793Z,1018.12
2018-02-06T02:01:56.736Z,1018.17
2018-02-06T02:03:06.662Z,1018.12
2018-02-06T02:04:16.350Z,1018.14
2018-02-06T02:05:26.295Z,1018.11
2018-02-06T02:06:36.249Z,1018.11
2018-02-06T02:07:45.934Z,1018.12
2018-02-06T02:08:55.864Z,1018.09
2018-02-06T02:10:05.579Z,1018.08
2018-02-06T02:11:15.519Z,1018.08
2018-02-06T02:12:25.452Z,1018.08
2018-02-06T02:13:35.400Z,1018.06
2018-02-06T02:14:45.081Z,1018.07
2018-02-06T02:15:54.764Z,1018.01
2018-02-06T02:17:04.467Z,1018.01
2018-02-06T02:18:14.180Z,1017.99
2018-02-06T02:19:24.122Z,1017.98
2018-02-06T02:20:34.063Z,1018.02
2018-02-06T02:21:43.995Z,1017.98
2018-02-06T02:22:53.938Z,1017.94
2018-02-06T02:24:03.621Z,1017.95
2018-02-06T02:25:13.555Z,1017.95
2018-02-06T02:26:23.514Z,1017.94
2018-02-06T02:27:33.630Z,1017.92
2018-02-06T02:28:43.613Z,1017.91
2018-02-06T02:29:53.542Z,1017.91
2018-02-06T02:31:03.478Z,1017.82
2018-02-06T02:32:12.646Z,1017.86
2018-02-06T02:33:22.591Z,1017.86
2018-02-06T02:34:32.533Z,1017.88
2018-02-06T02:35:42.474Z,1017.89
2018-02-06T02:36:52.413Z,1017.88
2018-02-06T02:38:02.352Z,1017.84
2018-02-06T02:39:12.298Z,1017.85
2018-02-06T02:40:22.291Z,1017.79
2018-02-06T02:41:31.973Z,1017.83
2018-02-06T04:38:58.834Z,1016.78
2018-02-06T04:40:08.821Z,1016.76
2018-02-06T04:41:18.767Z,1016.77
2018-02-06T04:42:28.700Z,1016.77
2018-02-06T04:43:38.644Z,1016.73
2018-02-06T04:44:48.330Z,1016.77
2018-02-06T04:45:58.266Z,1016.77
2018-02-06T04:47:08.200Z,1016.73
2018-02-06T04:48:18.133Z,1016.72
2018-02-06T04:49:27.813Z,1016.71
2018-02-06T04:50:37.746Z,1016.7
2018-02-06T04:51:47.670Z,1016.66
2018-02-06T04:52:57.614Z,1016.65
2018-02-06T04:54:07.541Z,1016.62
2018-02-06T04:55:17.476Z,1016.64
2018-02-06T04:56:27.155Z,1016.61
2018-02-06T04:57:37.089Z,1016.58
2018-02-06T04:58:47.022Z,1016.55
2018-02-06T04:59:56.952Z,1016.61
2018-02-06T05:01:06.872Z,1016.56
2018-02-06T05:02:16.797Z,1016.52
2018-02-06T05:03:26.481Z,1016.59
2018-02-06T05:04:36.451Z,1016.55
2018-02-06T05:05:46.381Z,1016.55
2018-02-06T05:06:56.084Z,1016.54
2018-02-06T05:08:06.025Z,1016.57
2018-02-06T05:09:15.705Z,1016.53
2018-02-06T05:10:25.427Z,1016.52
2018-02-06T05:11:35.112Z,1016.52
2018-02-06T05:12:44.793Z,1016.5
2018-02-06T05:13:54.211Z,1016.5
2018-02-06T05:15:04.142Z,1016.46
2018-02-06T05:16:14.089Z,1016.45
2018-02-06T05:17:24.023Z,1016.42
2018-02-06T05:18:33.715Z,1016.42
2018-02-06T05:19:43.661Z,1016.41
2018-02-06T05:20:53.600Z,1016.35
2018-02-06T05:22:03.279Z,1016.32
2018-02-06T05:23:12.963Z,1016.29
2018-02-06T05:24:22.894Z,1016.27
2018-02-06T05:25:32.573Z,1016.27
2018-02-06T05:26:41.988Z,1016.24
2018-02-06T05:27:51.921Z,1016.25
2018-02-06T05:29:01.857Z,1016.25
2018-02-06T05:30:11.819Z,1016.25
2018-02-06T05:31:21.769Z,1016.28
2018-02-06T05:32:31.456Z,1016.2
2018-02-06T05:33:41.397Z,1016.25
2018-02-06T05:34:51.104Z,1016.22
2018-02-06T05:36:01.029Z,1016.2
2018-02-06T05:37:10.977Z,1016.19
2018-02-06T05:38:21.133Z,1016.21
2018-02-06T05:39:30.815Z,1016.25
2018-02-06T05:40:40.744Z,1016.24
2018-02-06T05:41:50.422Z,1016.2
2018-02-06T05:43:00.114Z,1016.24
2018-02-06T05:44:09.797Z,1016.23
2018-02-06T05:45:19.740Z,1016.25
2018-02-06T05:46:29.420Z,1016.27
2018-02-06T05:47:38.841Z,1016.28
2018-02-06T05:48:48.766Z,1016.22
2018-02-06T05:49:58.705Z,1016.24
2018-02-06T05:51:08.390Z,1016.24
2018-02-06T05:52:18.069Z,1016.22
2018-02-06T05:53:28.026Z,1016.2
2018-02-06T05:54:37.968Z,1016.24
2018-02-06T05:55:47.914Z,1016.19
2018-02-06T05:56:57.596Z,1016.21
2018-02-06T05:58:07.558Z,1016.18
2018-02-06T05:59:17.658Z,1016.16
2018-02-06T06:00:27.602Z,1016.17
2018-02-06T06:01:37.041Z,1016.17
2018-02-06T06:02:46.723Z,1016.11
2018-02-06T06:03:56.656Z,1016.09
2018-02-06T06:05:06.337Z,1016.12
2018-02-06T06:06:16.018Z,1016.12
2018-02-06T06:07:25.952Z,1016.09
2018-02-06T06:08:35.885Z,1016.11
2018-02-06T06:09:45.598Z,1016.11
2018-02-06T06:10:55.543Z,1016.13
2018-02-06T06:12:05.478Z,1016.15
2018-02-06T06:13:15.423Z,1016.12
2018-02-06T06:14:25.361Z,1016.15
2018-02-06T06:15:35.066Z,1016.12
2018-02-06T06:16:45.001Z,1016.14
2018-02-06T06:17:54.686Z,1016.14
2018-02-06T06:19:04.375Z,1016.13
2018-02-06T06:20:14.323Z,1016.13
2018-02-06T06:21:24.295Z,1016.13
2018-02-06T06:22:34.235Z,1016.15
2018-02-06T06:23:43.924Z,1016.13
2018-02-06T06:24:53.862Z,1016.1
2018-02-06T06:26:03.553Z,1016.13
2018-02-06T06:27:13.495Z,1016.08
2018-02-06T06:28:23.437Z,1016.09
2018-02-06T06:29:33.137Z,1016.1
2018-02-06T06:30:43.104Z,1016.09
2018-02-06T06:31:53.072Z,1016.09
2018-02-06T06:33:03.013Z,1016.07
2018-02-06T06:34:12.950Z,1016.1
2018-02-06T06:35:22.634Z,1016.11
2018-02-06T06:36:32.579Z,1016.07
2018-02-06T06:37:42.517Z,1016.05
2018-02-06T06:38:51.931Z,1016.05
2018-02-06T06:40:01.869Z,1016.06
2018-02-06T06:41:11.551Z,1016.02
2018-02-06T06:42:21.238Z,1016.02
2018-02-06T06:43:31.180Z,1016.02
2018-02-06T06:44:40.854Z,1016.02
2018-02-06T06:45:50.805Z,1016
2018-02-06T06:47:00.751Z,1016.04
2018-02-06T06:48:10.177Z,1015.98
2018-02-06T06:49:19.851Z,1016.04
2018-02-06T06:50:29.798Z,1016.02
2018-02-06T06:51:39.743Z,1016.02
2018-02-06T06:52:49.185Z,1016.05
2018-02-06T06:53:58.871Z,1016.04
2018-02-06T06:55:08.559Z,1016.03
2018-02-06T06:56:18.291Z,1016.01
2018-02-06T06:57:28.227Z,1016.02
2018-02-06T06:58:38.159Z,1015.97
2018-02-06T06:59:48.190Z,1015.95
2018-02-06T07:00:57.878Z,1015.96
2018-02-06T07:02:07.819Z,1015.95
2018-02-06T07:03:17.500Z,1015.93
2018-02-06T07:04:27.444Z,1015.98
2018-02-06T07:05:37.136Z,1015.95
2018-02-06T07:06:46.821Z,1015.93
2018-02-06T07:07:56.768Z,1015.91
2018-02-06T07:09:06.711Z,1015.9
2018-02-06T07:10:16.646Z,1015.87
2018-02-06T07:11:26.610Z,1015.91
2018-02-06T07:12:36.556Z,1015.92
2018-02-06T07:13:46.239Z,1015.89
2018-02-06T07:14:56.186Z,1015.86
2018-02-06T07:16:05.899Z,1015.87
2018-02-06T07:17:15.588Z,1015.88
2018-02-06T07:18:25.264Z,1015.88
2018-02-06T07:19:35.212Z,1015.83
2018-02-06T07:20:45.156Z,1015.83
2018-02-06T07:21:54.857Z,1015.81
2018-02-06T07:23:04.786Z,1015.82
2018-02-06T07:24:14.736Z,1015.79
2018-02-06T07:25:24.672Z,1015.78
2018-02-06T07:26:34.608Z,1015.78
2018-02-06T07:27:44.544Z,1015.81
2018-02-06T07:28:54.264Z,1015.77
2018-02-06T07:30:04.238Z,1015.76
2018-02-06T07:31:13.666Z,1015.78
2018-02-06T07:32:23.611Z,1015.79
2018-02-06T07:33:33.288Z,1015.85
2018-02-06T07:34:42.977Z,1015.84
2018-02-06T07:35:52.657Z,1015.82
2018-02-06T07:37:02.596Z,1015.82
2018-02-06T07:38:12.551Z,1015.81
2018-02-06T07:39:22.489Z,1015.83
2018-02-06T07:40:32.427Z,1015.8
2018-02-06T07:41:41.847Z,1015.78
2018-02-06T07:42:51.595Z,1015.79
2018-02-06T07:44:01.528Z,1015.81
2018-02-06T07:45:11.466Z,1015.81
2018-02-06T07:46:21.155Z,1015.79
2018-02-06T07:47:30.838Z,1015.78
2018-02-06T07:48:40.526Z,1015.79
2018-02-06T07:49:50.470Z,1015.82
2018-02-06T07:51:00.190Z,1015.81
2018-02-06T07:52:09.925Z,1015.76
2018-02-06T07:53:19.872Z,1015.79
2018-02-06T07:54:29.817Z,1015.76
2018-02-06T07:55:39.501Z,1015.73
2018-02-06T07:56:49.496Z,1015.77
2018-02-06T07:57:59.433Z,1015.69
2018-02-06T07:59:09.152Z,1015.69
2018-02-06T08:00:18.584Z,1015.7
2018-02-06T08:01:28.601Z,1015.66
2018-02-06T08:02:38.551Z,1015.67
2018-02-06T08:03:48.508Z,1015.66
2018-02-06T08:04:58.457Z,1015.64
2018-02-06T08:06:08.413Z,1015.7
2018-02-06T08:07:18.356Z,1015.68
2018-02-06T08:08:28.337Z,1015.69
2018-02-06T08:09:38.020Z,1015.76
2018-02-06T08:10:47.982Z,1015.8
2018-02-06T08:11:58.001Z,1015.81
2018-02-06T08:13:08.017Z,1015.77
2018-02-06T08:14:17.705Z,1015.72
2018-02-06T08:15:27.655Z,1015.71
2018-02-06T08:16:37.604Z,1015.65
2018-02-06T08:17:47.287Z,1015.64
2018-02-06T08:18:56.979Z,1015.61
2018-02-06T08:20:06.946Z,1015.69
2018-02-06T08:21:16.904Z,1015.66
2018-02-06T08:22:26.858Z,1015.65
2018-02-06T08:23:36.572Z,1015.66
2018-02-06T08:24:46.518Z,1015.69
2018-02-06T08:25:56.490Z,1015.71
2018-02-06T08:27:06.588Z,1015.7
2018-02-06T08:28:16.329Z,1015.73
2018-02-06T08:29:26.318Z,1015.66
2018-02-06T08:30:36.281Z,1015.7
2018-02-06T08:31:46.231Z,1015.68
2018-02-06T08:32:56.182Z,1015.66
2018-02-06T08:34:05.888Z,1015.64
2018-02-06T08:35:15.852Z,1015.66
2018-02-06T08:36:25.814Z,1015.62
2018-02-06T08:37:35.508Z,1015.61
2018-02-06T08:38:44.950Z,1015.6
2018-02-06T08:39:54.900Z,1015.64
2018-02-06T08:41:04.606Z,1015.6
2018-02-06T08:42:14.583Z,1015.6
2018-02-06T08:43:24.612Z,1015.57
2018-02-06T08:44:34.571Z,1015.63
2018-02-06T08:45:44.264Z,1015.6
2018-02-06T08:46:54.227Z,1015.62
2018-02-06T08:48:03.665Z,1015.62
2018-02-06T08:49:13.615Z,1015.62
2018-02-06T08:50:23.586Z,1015.61
2018-02-06T08:51:33.048Z,1015.63
2018-02-06T08:52:42.748Z,1015.59
2018-02-06T08:53:52.715Z,1015.54
2018-02-06T08:55:02.678Z,1015.52
2018-02-06T08:56:12.648Z,1015.51
2018-02-06T08:57:22.351Z,1015.46
2018-02-06T08:58:32.299Z,1015.47
2018-02-06T08:59:41.754Z,1015.45
2018-02-06T09:00:51.454Z,1015.47
2018-02-06T09:02:01.400Z,1015.52
2018-02-06T09:03:11.353Z,1015.47
2018-02-06T09:04:21.311Z,1015.45
2018-02-06T09:05:31.283Z,1015.47
2018-02-06T09:06:41.267Z,1015.42
2018-02-06T09:07:50.966Z,1015.43
2018-02-06T09:09:00.666Z,1015.4
2018-02-06T09:10:10.621Z,1015.4
2018-02-06T09:11:20.828Z,1015.45
2018-02-06T09:12:30.858Z,1015.43
2018-02-06T09:13:40.838Z,1015.4
2018-02-06T09:14:50.539Z,1015.35
2018-02-06T09:16:00.243Z,1015.37
2018-02-06T09:17:09.717Z,1015.36
2018-02-06T09:18:19.712Z,1015.31
2018-02-06T09:19:29.410Z,1015.33
2018-02-06T09:20:39.104Z,1015.33
2018-02-06T09:21:48.799Z,1015.35
2018-02-06T09:22:58.752Z,1015.36
2018-02-06T09:24:08.714Z,1015.34
2018-02-06T09:25:18.662Z,1015.33
2018-02-06T09:26:28.622Z,1015.32
2018-02-06T09:27:38.321Z,1015.35
2018-02-06T09:28:48.295Z,1015.35
2018-02-06T09:29:58.246Z,1015.36
2018-02-06T09:31:08.198Z,1015.35
2018-02-06T09:32:18.154Z,1015.38
2018-02-06T09:33:28.111Z,1015.36
2018-02-06T09:34:38.067Z,1015.35
2018-02-06T09:35:48.062Z,1015.34
2018-02-06T09:36:57.769Z,1015.27
2018-02-06T09:38:07.216Z,1015.33
2018-02-06T09:39:17.181Z,1015.37
2018-02-06T09:40:27.137Z,1015.35
2018-02-06T09:41:37.118Z,1015.32
2018-02-06T09:42:47.088Z,1015.33
2018-02-06T09:43:57.037Z,1015.37
2018-02-06T09:45:06.990Z,1015.37
2018-02-06T09:46:16.695Z,1015.35
2018-02-06T09:47:26.391Z,1015.34
2018-02-06T09:48:36.344Z,1015.34
2018-02-06T09:49:46.306Z,1015.34
2018-02-06T09:50:56.278Z,1015.33
2018-02-06T09:52:06.228Z,1015.37
2018-02-06T09:53:16.185Z,1015.33
2018-02-06T09:54:26.203Z,1015.33
2018-02-06T09:55:36.214Z,1015.32
2018-02-06T09:56:45.944Z,1015.26
2018-02-06T09:57:55.892Z,1015.3
2018-02-06T09:59:05.839Z,1015.23
2018-02-06T10:00:15.824Z,1015.27
2018-02-06T10:01:25.784Z,1015.21
2018-02-06T10:02:35.482Z,1015.18
2018-02-06T10:03:45.443Z,1015.19
2018-02-06T10:04:55.442Z,1015.19
2018-02-06T10:06:05.400Z,1015.16
2018-02-06T10:07:15.360Z,1015.14
2018-02-06T10:08:25.330Z,1015.16
2018-02-06T10:09:35.290Z,1015.15
2018-02-06T10:10:45.236Z,1015.1
2018-02-06T10:11:55.204Z,1015.09
2018-02-06T10:13:04.917Z,1015.1
2018-02-06T10:14:14.611Z,1015.08
2018-02-06T10:15:24.559Z,1015.07
2018-02-06T10:16:34.502Z,1015.08
2018-02-06T10:17:43.953Z,1015.02
2018-02-06T10:18:53.915Z,1015.03
2018-02-06T10:20:03.350Z,1015.01
2018-02-06T10:21:13.041Z,1015
2018-02-06T10:22:22.786Z,1014.91
2018-02-06T10:23:32.735Z,1014.89
2018-02-06T10:24:42.716Z,1014.91
2018-02-06T10:25:52.659Z,1014.86
2018-02-06T10:27:02.606Z,1014.86
2018-02-06T10:28:12.344Z,1014.83
2018-02-06T10:29:22.303Z,1014.79
2018-02-06T10:30:32.021Z,1014.78
2018-02-06T10:31:41.958Z,1014.78
2018-02-06T10:32:51.644Z,1014.79
2018-02-06T10:34:01.579Z,1014.82
2018-02-06T10:35:11.516Z,1014.79
2018-02-06T10:36:21.464Z,1014.74
2018-02-06T10:37:31.416Z,1014.76
2018-02-06T10:38:41.378Z,1014.75
2018-02-06T10:39:51.106Z,1014.69
2018-02-06T10:41:00.786Z,1014.7
2018-02-06T10:42:10.753Z,1014.7
2018-02-06T10:43:20.692Z,1014.69
2018-02-06T10:44:30.649Z,1014.67
2018-02-06T10:45:40.595Z,1014.65
2018-02-06T10:46:50.559Z,1014.63
2018-02-06T10:48:00.278Z,1014.64
2018-02-06T10:49:09.971Z,1014.63
2018-02-06T10:50:19.913Z,1014.58
2018-02-06T10:51:29.902Z,1014.61
2018-02-06T10:52:39.619Z,1014.6
2018-02-06T10:53:49.607Z,1014.6
2018-02-06T10:54:59.559Z,1014.62
2018-02-06T10:56:09.250Z,1014.61
2018-02-06T10:57:19.223Z,1014.61
2018-02-06T10:58:29.190Z,1014.56
2018-02-06T10:59:39.130Z,1014.57
2018-02-06T11:00:48.821Z,1014.58
2018-02-06T11:01:58.566Z,1014.53
2018-02-06T11:03:08.517Z,1014.49
2018-02-06T11:04:18.455Z,1014.54
2018-02-06T11:05:28.400Z,1014.44
2018-02-06T11:06:38.444Z,1014.42
2018-02-06T11:07:48.144Z,1014.42
2018-02-06T11:08:58.101Z,1014.45
2018-02-06T11:10:08.047Z,1014.43
2018-02-06T11:11:17.986Z,1014.38
2018-02-06T11:12:27.954Z,1014.38
2018-02-06T11:13:38.075Z,1014.37
2018-02-06T11:14:47.761Z,1014.37
2018-02-06T11:15:57.468Z,1014.37
2018-02-06T11:17:07.420Z,1014.38
2018-02-06T11:18:17.155Z,1014.34
2018-02-06T11:19:27.095Z,1014.3
2018-02-06T11:20:37.031Z,1014.3
2018-02-06T11:21:46.969Z,1014.28
2018-02-06T11:22:56.925Z,1014.29
2018-02-06T11:24:06.860Z,1014.31
2018-02-06T11:25:16.554Z,1014.24
2018-02-06T11:26:26.497Z,1014.25
2018-02-06T11:27:36.467Z,1014.23
2018-02-06T11:28:46.414Z,1014.16
2018-02-06T11:29:56.097Z,1014.12
2018-02-06T11:31:06.079Z,1014.13
2018-02-06T11:32:16.022Z,1014.09
2018-02-06T11:33:26.051Z,1014.08
2018-02-06T11:34:36.007Z,1014.06
2018-02-06T11:35:45.971Z,1014.07
2018-02-06T11:36:55.715Z,1014.03
2018-02-06T11:38:05.665Z,1014.04
2018-02-06T11:39:15.731Z,1014.02
2018-02-06T11:40:25.709Z,1013.99
2018-02-06T11:41:35.707Z,1013.89
2018-02-06T11:42:45.413Z,1013.88
2018-02-06T11:43:55.105Z,1013.85
2018-02-06T11:45:04.799Z,1013.84
2018-02-06T11:46:14.771Z,1013.8
2018-02-06T11:47:24.479Z,1013.79
2018-02-06T11:48:34.194Z,1013.82
2018-02-06T11:49:43.901Z,1013.81
2018-02-06T11:50:53.602Z,1013.77
2018-02-06T11:52:03.539Z,1013.78
2018-02-06T11:53:13.489Z,1013.76
2018-02-06T11:54:22.924Z,1013.8
2018-02-06T11:55:32.901Z,1013.83
2018-02-06T11:56:42.877Z,1013.81
2018-02-06T11:57:52.604Z,1013.79
2018-02-06T11:59:02.307Z,1013.71
2018-02-06T12:00:12.026Z,1013.76
2018-02-06T12:01:21.979Z,1013.72
2018-02-06T12:02:31.926Z,1013.7
2018-02-06T12:03:41.872Z,1013.71
2018-02-06T12:04:51.571Z,1013.7
2018-02-06T12:06:01.002Z,1013.67
2018-02-06T12:07:10.957Z,1013.59
2018-02-06T12:08:20.905Z,1013.64
2018-02-06T12:09:30.651Z,1013.66
2018-02-06T12:10:40.609Z,1013.67
2018-02-06T12:11:50.566Z,1013.63
2018-02-06T12:13:00.517Z,1013.6
2018-02-06T12:14:10.468Z,1013.58
2018-02-06T12:15:20.424Z,1013.53
2018-02-06T12:16:30.116Z,1013.53
2018-02-06T12:17:40.098Z,1013.54
2018-02-06T12:18:50.100Z,1013.53
2018-02-06T12:20:00.069Z,1013.51
2018-02-06T12:21:10.033Z,1013.46
2018-02-06T12:22:19.985Z,1013.44
2018-02-06T12:23:29.942Z,1013.51
2018-02-06T12:24:39.657Z,1013.47
2018-02-06T12:25:49.358Z,1013.42
2018-02-06T12:26:59.051Z,1013.44
2018-02-06T12:28:08.984Z,1013.43
2018-02-06T12:29:18.941Z,1013.35
2018-02-06T12:30:28.906Z,1013.33
2018-02-06T12:31:38.856Z,1013.26
2018-02-06T12:32:48.288Z,1013.27
2018-02-06T12:33:58.233Z,1013.2
2018-02-06T12:35:07.923Z,1013.11
2018-02-06T12:36:17.620Z,1013.13
2018-02-06T12:37:27.351Z,1013.09
2018-02-06T12:38:37.323Z,1013.09
2018-02-06T12:39:47.013Z,1013.12
2018-02-06T12:40:56.706Z,1013.07
2018-02-06T12:42:06.654Z,1013.12
2018-02-06T12:43:16.350Z,1013.12
2018-02-06T12:44:26.305Z,1013.13
2018-02-06T12:45:36.019Z,1013.09
2018-02-06T12:46:45.472Z,1013.05
2018-02-06T12:47:55.431Z,1013.03
2018-02-06T12:49:05.410Z,1013.04
2018-02-06T12:50:15.415Z,1013.02
2018-02-06T12:51:25.108Z,1012.99
2018-02-06T12:52:34.825Z,1012.95
2018-02-06T12:53:44.262Z,1012.96
2018-02-06T12:54:54.216Z,1012.91
2018-02-06T12:56:03.714Z,1012.87
2018-02-06T12:57:13.575Z,1012.86
2018-02-06T12:58:23.543Z,1012.84
2018-02-06T12:59:33.496Z,1012.89
2018-02-06T13:00:43.482Z,1012.88
2018-02-06T13:01:53.202Z,1012.83
2018-02-06T13:03:03.137Z,1012.79
2018-02-06T13:04:13.182Z,1012.82
2018-02-06T13:05:22.881Z,1012.76
2018-02-06T13:06:32.579Z,1012.71
2018-02-06T13:07:42.521Z,1012.71
2018-02-06T13:08:52.497Z,1012.62
2018-02-06T13:10:02.755Z,1012.59
2018-02-06T13:11:12.487Z,1012.59
2018-02-06T13:12:22.429Z,1012.55
2018-02-06T13:13:32.388Z,1012.44
2018-02-06T13:14:42.079Z,1012.45
2018-02-06T13:15:51.766Z,1012.48
2018-02-06T13:17:01.447Z,1012.48
2018-02-06T13:18:11.386Z,1012.47
2018-02-06T13:19:21.324Z,1012.46
2018-02-06T13:20:31.261Z,1012.47
2018-02-06T13:21:40.954Z,1012.41
2018-02-06T13:22:50.666Z,1012.42
2018-02-06T13:24:00.622Z,1012.42
2018-02-06T13:25:10.567Z,1012.39
2018-02-06T13:26:20.506Z,1012.34
2018-02-06T13:27:30.445Z,1012.34
2018-02-06T13:28:40.644Z,1012.35
2018-02-06T13:29:50.600Z,1012.39
2018-02-06T13:31:00.574Z,1012.35
2018-02-06T13:32:09.757Z,1012.34
2018-02-06T13:33:19.190Z,1012.34
2018-02-06T13:34:29.149Z,1012.36
2018-02-06T13:35:39.096Z,1012.3
2018-02-06T13:36:49.110Z,1012.3
2018-02-06T13:37:58.794Z,1012.29
2018-02-06T13:39:08.504Z,1012.25
2018-02-06T13:40:18.456Z,1012.24
2018-02-06T13:41:28.404Z,1012.26
2018-02-06T13:42:38.090Z,1012.21
2018-02-06T13:43:48.049Z,1012.23
2018-02-06T13:44:57.751Z,1012.27
2018-02-06T13:46:07.697Z,1012.22
2018-02-06T13:47:17.378Z,1012.23
2018-02-06T13:48:27.325Z,1012.23
2018-02-06T13:49:37.277Z,1012.25
2018-02-06T13:50:47.213Z,1012.22
2018-02-06T13:51:57.159Z,1012.24
2018-02-06T13:53:07.117Z,1012.25
2018-02-06T13:54:16.827Z,1012.2
2018-02-06T13:55:26.538Z,1012.19
2018-02-06T13:56:36.233Z,1012.22
2018-02-06T13:57:45.944Z,1012.19
2018-02-06T13:58:55.896Z,1012.21
2018-02-06T14:00:05.841Z,1012.19
2018-02-06T14:01:15.808Z,1012.18
2018-02-06T14:02:25.830Z,1012.2
2018-02-06T14:03:35.800Z,1012.18
2018-02-06T14:04:45.759Z,1012.19
2018-02-06T14:05:55.730Z,1012.2
2018-02-06T14:07:05.431Z,1012.14
2018-02-06T14:08:15.383Z,1012.12
2018-02-06T14:09:25.338Z,1012.13
2018-02-06T14:10:35.297Z,1012.11
2018-02-06T14:11:45.031Z,1012.12
2018-02-06T14:12:54.749Z,1012.1
2018-02-06T14:14:04.700Z,1012.07
2018-02-06T14:15:14.142Z,1012.1
2018-02-06T14:16:24.112Z,1012.03
2018-02-06T14:17:34.071Z,1012.04
2018-02-06T14:18:44.026Z,1012.01
2018-02-06T14:19:53.985Z,1012.02
2018-02-06T14:21:03.931Z,1011.99
2018-02-06T14:22:13.895Z,1011.97
2018-02-06T14:23:23.329Z,1012.01
2018-02-06T14:24:33.289Z,1011.99
2018-02-06T14:25:43.258Z,1011.94
2018-02-06T14:26:53.233Z,1011.95
2018-02-06T14:28:03.180Z,1011.98
2018-02-06T14:29:13.122Z,1011.92
2018-02-06T14:30:22.864Z,1011.91
2018-02-06T14:31:32.828Z,1011.85
2018-02-06T14:32:42.779Z,1011.88
2018-02-06T14:33:52.218Z,1011.84
2018-02-06T14:35:02.174Z,1011.84
2018-02-06T14:36:11.870Z,1011.9
2018-02-06T14:37:22.127Z,1011.74
2018-02-06T14:38:31.830Z,1011.84
2018-02-06T14:39:41.780Z,1011.85
2018-02-06T14:40:51.749Z,1011.84
2018-02-06T14:42:01.206Z,1011.83
2018-02-06T14:43:10.893Z,1011.82
2018-02-06T14:44:20.864Z,1011.79
2018-02-06T14:45:30.809Z,1011.77
2018-02-06T14:46:40.515Z,1011.75
2018-02-06T14:47:50.254Z,1011.71
2018-02-06T14:49:00.213Z,1011.68
2018-02-06T14:50:09.963Z,1011.67
2018-02-06T14:51:19.915Z,1011.65
2018-02-06T14:52:29.922Z,1011.67
2018-02-06T14:53:39.887Z,1011.68
2018-02-06T14:54:49.840Z,1011.66
2018-02-06T14:55:59.793Z,1011.69
2018-02-06T14:57:09.519Z,1011.68
2018-02-06T14:58:19.486Z,1011.66
2018-02-06T14:59:29.451Z,1011.63
2018-02-06T15:00:39.410Z,1011.64
2018-02-06T15:01:49.372Z,1011.63
2018-02-06T15:02:59.463Z,1011.63
2018-02-06T15:04:09.421Z,1011.61
2018-02-06T15:05:19.390Z,1011.61
2018-02-06T15:06:29.114Z,1011.62
2018-02-06T15:07:38.824Z,1011.64
2018-02-06T15:08:48.776Z,1011.6
2018-02-06T15:09:58.240Z,1011.6
2018-02-06T15:11:07.936Z,1011.54
2018-02-06T15:12:17.894Z,1011.54
2018-02-06T15:13:27.846Z,1011.52
2018-02-06T15:14:37.805Z,1011.52
2018-02-06T15:15:47.239Z,1011.54
2018-02-06T15:16:57.182Z,1011.53
2018-02-06T15:18:06.881Z,1011.54
2018-02-06T15:19:16.857Z,1011.5
2018-02-06T15:20:26.560Z,1011.49
2018-02-06T15:21:36.271Z,1011.48
2018-02-06T15:22:46.278Z,1011.48
2018-02-06T15:23:56.234Z,1011.49
2018-02-06T15:25:06.185Z,1011.52
2018-02-06T15:26:16.144Z,1011.48
2018-02-06T15:27:26.106Z,1011.53
2018-02-06T15:28:36.070Z,1011.45
2018-02-06T15:29:46.028Z,1011.43
2018-02-06T15:30:55.727Z,1011.47
2018-02-06T15:32:05.176Z,1011.41
2018-02-06T15:33:15.123Z,1011.42
2018-02-06T15:34:25.071Z,1011.43
2018-02-06T15:35:34.767Z,1011.43
2018-02-06T15:36:44.729Z,1011.34
2018-02-06T15:37:54.670Z,1011.36
2018-02-06T15:39:04.380Z,1011.36
2018-02-06T15:40:14.094Z,1011.38
2018-02-06T15:41:24.054Z,1011.34
2018-02-06T15:42:34.012Z,1011.33
2018-02-06T15:43:43.953Z,1011.32
2018-02-06T15:44:53.890Z,1011.32
2018-02-06T15:46:03.635Z,1011.32
2018-02-06T15:47:13.629Z,1011.36
2018-02-06T15:48:23.314Z,1011.4
2018-02-06T15:49:33.274Z,1011.38
2018-02-06T15:50:42.968Z,1011.38
2018-02-06T15:51:52.920Z,1011.41
2018-02-06T15:53:02.640Z,1011.33
2018-02-06T15:54:12.600Z,1011.45
2018-02-06T15:55:22.549Z,1011.41
2018-02-06T15:56:32.244Z,1011.38
2018-02-06T15:57:42.202Z,1011.36
2018-02-06T15:58:51.902Z,1011.41
2018-02-06T16:00:01.838Z,1011.31
2018-02-06T16:01:11.798Z,1011.35
2018-02-06T16:02:21.750Z,1011.4
2018-02-06T16:03:31.438Z,1011.42